Flight Track Log - Related Links

Times and Time Zones

All times are in EDT time to prevent confusion due to time zone crossing. See the ASH3770 flight status page for this flight to view local times or setup timezone preferences in your user account.

Time Position Orientation Groundspeed Altitude Reporting Facility
EDT Latitude Longitude Course Direction KTS MPH feet Rate Location/Type
Tue 05:17:45 PM 38.9667 -77.5833 290° West 271 312 2,300  Level Potomac TRACON
Tue 05:18:44 PM 39.0272 -77.6383 325° Northwest 287 330 5,500 2,800 Climbing Washington Center
Tue 05:19:45 PM 39.0850 -77.6722 336° Northwest 281 323 7,900 2,777 Climbing Washington Center
Tue 05:20:00 PM 39.3334 -77.5583 344° North  Level FlightAware Approximate
Tue 05:20:45 PM 39.1803 -77.7175 340° North 294 338 11,100  Level Washington Center
Tue 05:21:00 PM 39.4356 -77.5833 North  Level FlightAware Approximate
Tue 05:21:46 PM 39.2606 -77.7628 336° Northwest 300 345 13,700  Level Washington Center
Tue 05:22:00 PM 39.4814 -77.6934 290° West  Level FlightAware Approximate
Tue 05:22:46 PM 39.3494 -77.8139 336° Northwest 323 372 15,100  Level Washington Center
Tue 05:23:47 PM 39.4506 -77.8681 338° Northwest 359 413 16,100 454 Climbing Washington Center
Tue 05:24:45 PM 39.5472 -77.9328 333° Northwest 386 444 16,000 614 Descending Washington Center
Tue 05:26:33 PM 39.6353 -78.1758 295° West 392 451 17,800 1,393 Climbing Cleveland Center
Tue 05:27:33 PM 39.6756 -78.3147 291° West 397 457 19,900 1,100 Climbing Cleveland Center
Tue 05:28:33 PM 39.7203 -78.4644 291° West 427 491 20,000 50 Climbing Cleveland Center
Tue 05:29:33 PM 39.7647 -78.6169 291° West 445 512 20,000  Level Cleveland Center
Tue 05:30:33 PM 39.8003 -78.7536 289° West 445 512 20,000  Level Cleveland Center
Tue 05:31:33 PM 39.8419 -78.8986 291° West 445 512 20,000  Level Cleveland Center
Tue 05:32:33 PM 39.8881 -79.0489 292° West 445 512 20,000  Level Cleveland Center
Tue 05:33:33 PM 39.9317 -79.1969 291° West 445 512 20,000 -1,150 Level Cleveland Center
Tue 05:34:33 PM 39.9728 -79.3425 290° West 440 506 17,700 -2,500 Descending Cleveland Center
Tue 05:35:33 PM 40.0408 -79.4631 306° West 418 481 15,000 -2,600 Descending Cleveland Center
Tue 05:36:33 PM 40.1106 -79.5758 309° West 413 475 12,500 -2,400 Descending Cleveland Center
Tue 05:37:33 PM 40.1783 -79.6836 309° West 400 460 10,200 -1,200 Descending Cleveland Center
Tue 05:38:33 PM 40.2292 -79.7944 301° West 379 436 10,100 -100 Descending Cleveland Center
Tue 05:39:33 PM 40.2800 -79.9136 299° West 366 421 10,000 -400 Descending Cleveland Center
Tue 05:40:33 PM 40.3222 -80.0111 300° West 342 394 9,300 -950 Descending Cleveland Center
Tue 05:41:33 PM 40.3558 -80.1036 296° West 306 352 8,100 -700 Descending Cleveland Center
Tue 05:42:33 PM 40.3897 -80.2042 294° West 299 344 7,900 -950 Descending Cleveland Center
Tue 05:43:33 PM 40.3669 -80.3025 253° West 280 322 6,200 -1,950 Descending Cleveland Center
Tue 05:44:33 PM 40.3942 -80.4006 290° West 275 316 4,000 -1,550 Descending Cleveland Center
Tue 05:45:33 PM 40.4631 -80.4247 345° North 209 241 3,100 -900 Descending Cleveland Center

Login

Don't have an account? Register now (free) for customized features, flight alerts, and more!